sensor_id;sensor_type;location;lat;lon;timestamp;pressure;altitude;pressure_sealevel;temperature;humidity
37852;BME280;23691;52.486;4.650;2023-02-01T00:01:48;101920.00;;;7.65;70.03
37852;BME280;23691;52.486;4.650;2023-02-01T00:04:13;101912.13;;;7.63;70.22
37852;BME280;23691;52.486;4.650;2023-02-01T00:06:39;101926.28;;;7.64;70.05
37852;BME280;23691;52.486;4.650;2023-02-01T00:09:04;101920.13;;;7.63;70.03
37852;BME280;23691;52.486;4.650;2023-02-01T00:11:30;101927.03;;;7.66;69.89
37852;BME280;23691;52.486;4.650;2023-02-01T00:13:56;101929.81;;;7.64;69.99
37852;BME280;23691;52.486;4.650;2023-02-01T00:16:25;101936.94;;;7.64;69.91
37852;BME280;23691;52.486;4.650;2023-02-01T00:18:55;101938.78;;;7.63;70.29
37852;BME280;23691;52.486;4.650;2023-02-01T00:21:22;101934.38;;;7.62;70.47
37852;BME280;23691;52.486;4.650;2023-02-01T00:23:47;101933.44;;;7.63;70.62
37852;BME280;23691;52.486;4.650;2023-02-01T00:26:18;101943.13;;;7.64;70.75
37852;BME280;23691;52.486;4.650;2023-02-01T00:28:45;101928.13;;;7.63;70.76
37852;BME280;23691;52.486;4.650;2023-02-01T00:31:10;101927.38;;;7.61;70.78
37852;BME280;23691;52.486;4.650;2023-02-01T00:33:36;101925.56;;;7.62;70.67
37852;BME280;23691;52.486;4.650;2023-02-01T00:36:04;101920.34;;;7.60;70.62
37852;BME280;23691;52.486;4.650;2023-02-01T00:38:30;101923.97;;;7.59;70.69
37852;BME280;23691;52.486;4.650;2023-02-01T00:41:04;101898.09;;;7.61;70.44
37852;BME280;23691;52.486;4.650;2023-02-01T00:43:31;101900.13;;;7.58;70.61
37852;BME280;23691;52.486;4.650;2023-02-01T00:45:57;101903.66;;;7.58;70.24
37852;BME280;23691;52.486;4.650;2023-02-01T00:48:23;101888.53;;;7.59;70.25
37852;BME280;23691;52.486;4.650;2023-02-01T00:50:48;101887.44;;;7.61;70.20
37852;BME280;23691;52.486;4.650;2023-02-01T00:53:14;101892.63;;;7.63;70.10
37852;BME280;23691;52.486;4.650;2023-02-01T00:55:39;101891.66;;;7.64;69.91
37852;BME280;23691;52.486;4.650;2023-02-01T00:58:05;101903.06;;;7.66;70.02
37852;BME280;23691;52.486;4.650;2023-02-01T01:00:32;101902.19;;;7.65;69.95
37852;BME280;23691;52.486;4.650;2023-02-01T01:02:57;101895.19;;;7.64;69.82
37852;BME280;23691;52.486;4.650;2023-02-01T01:05:23;101898.47;;;7.68;69.76
37852;BME280;23691;52.486;4.650;2023-02-01T01:07:49;101903.78;;;7.68;69.72
37852;BME280;23691;52.486;4.650;2023-02-01T01:10:15;101905.38;;;7.70;69.84
37852;BME280;23691;52.486;4.650;2023-02-01T01:12:40;101907.16;;;7.70;69.73
37852;BME280;23691;52.486;4.650;2023-02-01T01:15:06;101921.34;;;7.70;69.93
37852;BME280;23691;52.486;4.650;2023-02-01T01:17:32;101905.38;;;7.70;69.67
37852;BME280;23691;52.486;4.650;2023-02-01T01:19:57;101892.88;;;7.71;69.75
37852;BME280;23691;52.486;4.650;2023-02-01T01:22:23;101902.56;;;7.72;69.71
37852;BME280;23691;52.486;4.650;2023-02-01T01:24:48;101893.72;;;7.71;69.79
37852;BME280;23691;52.486;4.650;2023-02-01T01:27:13;101895.31;;;7.74;70.19
37852;BME280;23691;52.486;4.650;2023-02-01T01:29:39;101899.78;;;7.73;70.04
37852;BME280;23691;52.486;4.650;2023-02-01T01:32:04;101907.88;;;7.72;70.21
37852;BME280;23691;52.486;4.650;2023-02-01T01:34:29;101898.22;;;7.71;70.23
37852;BME280;23691;52.486;4.650;2023-02-01T01:36:55;101896.28;;;7.73;70.63
37852;BME280;23691;52.486;4.650;2023-02-01T01:39:20;101884.91;;;7.71;70.72
37852;BME280;23691;52.486;4.650;2023-02-01T01:41:46;101884.06;;;7.70;70.80
37852;BME280;23691;52.486;4.650;2023-02-01T01:47:15;101883.44;;;7.67;70.87
37852;BME280;23691;52.486;4.650;2023-02-01T01:49:41;101870.94;;;7.67;70.92
37852;BME280;23691;52.486;4.650;2023-02-01T01:52:07;101876.28;;;7.67;70.71
37852;BME280;23691;52.486;4.650;2023-02-01T01:54:43;101871.09;;;7.66;70.65
37852;BME280;23691;52.486;4.650;2023-02-01T01:57:24;101870.94;;;7.67;70.72
37852;BME280;23691;52.486;4.650;2023-02-01T01:59:56;101887.91;;;7.66;70.99
37852;BME280;23691;52.486;4.650;2023-02-01T02:02:24;101877.50;;;7.63;71.42
37852;BME280;23691;52.486;4.650;2023-02-01T02:04:49;101869.53;;;7.63;71.48
37852;BME280;23691;52.486;4.650;2023-02-01T02:07:19;101868.78;;;7.61;71.44
37852;BME280;23691;52.486;4.650;2023-02-01T02:09:46;101875.78;;;7.62;71.51
37852;BME280;23691;52.486;4.650;2023-02-01T02:12:12;101868.66;;;7.63;71.47
37852;BME280;23691;52.486;4.650;2023-02-01T02:14:37;101856.31;;;7.62;71.32
37852;BME280;23691;52.486;4.650;2023-02-01T02:33:21;101824.59;;;7.59;71.01
37852;BME280;23691;52.486;4.650;2023-02-01T02:41:21;101814.41;;;7.52;71.46
37852;BME280;23691;52.486;4.650;2023-02-01T02:44:15;101815.50;;;7.50;72.11
37852;BME280;23691;52.486;4.650;2023-02-01T02:47:11;101811.03;;;7.50;72.03
37852;BME280;23691;52.486;4.650;2023-02-01T02:49:55;101820.81;;;7.50;72.43
37852;BME280;23691;52.486;4.650;2023-02-01T02:52:58;101812.09;;;7.48;72.35
37852;BME280;23691;52.486;4.650;2023-02-01T02:55:45;101816.94;;;7.43;72.35
37852;BME280;23691;52.486;4.650;2023-02-01T02:58:10;101835.59;;;7.43;72.31
37852;BME280;23691;52.486;4.650;2023-02-01T03:00:56;101814.44;;;7.41;72.52
37852;BME280;23691;52.486;4.650;2023-02-01T03:03:41;101811.03;;;7.39;72.71
37852;BME280;23691;52.486;4.650;2023-02-01T03:06:26;101794.06;;;7.40;72.69
37852;BME280;23691;52.486;4.650;2023-02-01T03:08:54;101818.88;;;7.41;72.45
37852;BME280;23691;52.486;4.650;2023-02-01T03:11:23;101802.91;;;7.41;72.31
37852;BME280;23691;52.486;4.650;2023-02-01T03:14:09;101812.59;;;7.42;72.50
37852;BME280;23691;52.486;4.650;2023-02-01T03:16:51;101814.19;;;7.44;72.20
37852;BME280;23691;52.486;4.650;2023-02-01T03:19:30;101812.34;;;7.45;71.75
37852;BME280;23691;52.486;4.650;2023-02-01T03:22:05;101816.72;;;7.46;71.99
37852;BME280;23691;52.486;4.650;2023-02-01T03:24:39;101812.97;;;7.48;71.90
37852;BME280;23691;52.486;4.650;2023-02-01T03:29:45;101798.78;;;7.48;72.13
37852;BME280;23691;52.486;4.650;2023-02-01T03:32:13;101837.06;;;7.47;71.45
37852;BME280;23691;52.486;4.650;2023-02-01T03:34:39;101822.91;;;7.46;70.99
37852;BME280;23691;52.486;4.650;2023-02-01T03:37:08;101828.22;;;7.46;70.93
37852;BME280;23691;52.486;4.650;2023-02-01T03:39:46;101798.44;;;7.41;71.37
37852;BME280;23691;52.486;4.650;2023-02-01T03:42:14;101805.97;;;7.36;71.48
37852;BME280;23691;52.486;4.650;2023-02-01T03:44:50;101816.72;;;7.35;71.73
37852;BME280;23691;52.486;4.650;2023-02-01T03:47:24;101814.28;;;7.31;71.74
37852;BME280;23691;52.486;4.650;2023-02-01T03:49:55;101809.91;;;7.30;72.19
37852;BME280;23691;52.486;4.650;2023-02-01T03:52:31;101812.72;;;7.29;72.29
37852;BME280;23691;52.486;4.650;2023-02-01T03:54:59;101821.78;;;7.26;72.37
37852;BME280;23691;52.486;4.650;2023-02-01T03:57:30;101822.50;;;7.28;72.64
37852;BME280;23691;52.486;4.650;2023-02-01T04:00:16;101815.38;;;7.29;72.73
37852;BME280;23691;52.486;4.650;2023-02-01T04:02:42;101809.31;;;7.27;72.83
37852;BME280;23691;52.486;4.650;2023-02-01T04:05:08;101818.03;;;7.29;72.92
37852;BME280;23691;52.486;4.650;2023-02-01T04:07:34;101811.16;;;7.26;73.00
37852;BME280;23691;52.486;4.650;2023-02-01T04:09:59;101816.56;;;7.25;73.39
37852;BME280;23691;52.486;4.650;2023-02-01T04:12:25;101821.16;;;7.23;73.08
37852;BME280;23691;52.486;4.650;2023-02-01T04:14:50;101811.59;;;7.20;72.97
37852;BME280;23691;52.486;4.650;2023-02-01T04:17:15;101813.31;;;7.21;72.93
37852;BME280;23691;52.486;4.650;2023-02-01T04:19:41;101812.69;;;7.18;72.82
37852;BME280;23691;52.486;4.650;2023-02-01T04:22:06;101810.75;;;7.20;73.03
37852;BME280;23691;52.486;4.650;2023-02-01T04:24:32;101814.41;;;7.19;72.88
37852;BME280;23691;52.486;4.650;2023-02-01T04:26:57;101824.06;;;7.20;73.10
37852;BME280;23691;52.486;4.650;2023-02-01T04:29:26;101808.09;;;7.20;73.07
37852;BME280;23691;52.486;4.650;2023-02-01T04:31:51;101823.09;;;7.21;72.82
37852;BME280;23691;52.486;4.650;2023-02-01T04:34:16;101821.31;;;7.21;73.11
37852;BME280;23691;52.486;4.650;2023-02-01T04:36:42;101815.13;;;7.21;73.39
37852;BME280;23691;52.486;4.650;2023-02-01T04:39:09;101806.53;;;7.17;73.24
37852;BME280;23691;52.486;4.650;2023-02-01T04:41:34;101804.84;;;7.16;73.54
37852;BME280;23691;52.486;4.650;2023-02-01T04:44:00;101793.22;;;7.17;73.62
37852;BME280;23691;52.486;4.650;2023-02-01T04:46:25;101794.91;;;7.18;73.64
37852;BME280;23691;52.486;4.650;2023-02-01T04:48:51;101779.66;;;7.20;74.00
37852;BME280;23691;52.486;4.650;2023-02-01T04:51:16;101796.38;;;7.22;74.00
37852;BME280;23691;52.486;4.650;2023-02-01T04:53:43;101796.13;;;7.25;73.83
37852;BME280;23691;52.486;4.650;2023-02-01T04:56:08;101794.19;;;7.27;73.76
37852;BME280;23691;52.486;4.650;2023-02-01T04:58:34;101794.19;;;7.27;74.08
37852;BME280;23691;52.486;4.650;2023-02-01T05:01:02;101792.50;;;7.26;73.85
37852;BME280;23691;52.486;4.650;2023-02-01T05:03:30;101788.97;;;7.26;73.99
37852;BME280;23691;52.486;4.650;2023-02-01T05:05:55;101812.94;;;7.26;74.25
37852;BME280;23691;52.486;4.650;2023-02-01T05:08:20;101809.44;;;7.25;74.03
37852;BME280;23691;52.486;4.650;2023-02-01T05:10:47;101804.94;;;7.26;74.12
37852;BME280;23691;52.486;4.650;2023-02-01T05:13:13;101809.19;;;7.28;74.18
37852;BME280;23691;52.486;4.650;2023-02-01T05:15:57;101823.47;;;7.27;74.32
37852;BME280;23691;52.486;4.650;2023-02-01T05:18:22;101821.66;;;7.28;74.06
37852;BME280;23691;52.486;4.650;2023-02-01T05:20:47;101866.19;;;7.26;74.21
37852;BME280;23691;52.486;4.650;2023-02-01T05:23:13;101816.47;;;7.26;73.97
37852;BME280;23691;52.486;4.650;2023-02-01T05:25:38;101833.16;;;7.28;73.82
37852;BME280;23691;52.486;4.650;2023-02-01T05:28:04;101835.69;;;7.30;73.74
37852;BME280;23691;52.486;4.650;2023-02-01T05:30:29;101806.31;;;7.31;74.04
37852;BME280;23691;52.486;4.650;2023-02-01T05:32:57;101804.59;;;7.30;73.50
37852;BME280;23691;52.486;4.650;2023-02-01T05:35:22;101814.50;;;7.28;73.54
37852;BME280;23691;52.486;4.650;2023-02-01T05:37:48;101803.03;;;7.28;73.29
37852;BME280;23691;52.486;4.650;2023-02-01T05:40:13;101811.00;;;7.28;73.25
37852;BME280;23691;52.486;4.650;2023-02-01T05:42:39;101808.34;;;7.28;72.86
37852;BME280;23691;52.486;4.650;2023-02-01T05:45:04;101805.09;;;7.24;73.25
37852;BME280;23691;52.486;4.650;2023-02-01T05:47:30;101827.34;;;7.23;73.32
37852;BME280;23691;52.486;4.650;2023-02-01T05:49:59;101827.34;;;7.23;73.69
37852;BME280;23691;52.486;4.650;2023-02-01T05:52:24;101809.69;;;7.22;73.69
37852;BME280;23691;52.486;4.650;2023-02-01T05:54:50;101809.09;;;7.19;73.60
37852;BME280;23691;52.486;4.650;2023-02-01T05:57:15;101805.69;;;7.17;74.13
37852;BME280;23691;52.486;4.650;2023-02-01T05:59:41;101814.50;;;7.17;73.62
37852;BME280;23691;52.486;4.650;2023-02-01T06:02:10;101818.16;;;7.16;73.79
37852;BME280;23691;52.486;4.650;2023-02-01T06:04:35;101812.09;;;7.14;73.66
37852;BME280;23691;52.486;4.650;2023-02-01T06:07:01;101807.88;;;7.12;73.69
37852;BME280;23691;52.486;4.650;2023-02-01T06:09:26;101816.06;;;7.08;73.93
37852;BME280;23691;52.486;4.650;2023-02-01T06:11:53;101810.72;;;7.08;73.86
37852;BME280;23691;52.486;4.650;2023-02-01T06:14:18;101824.03;;;7.08;73.99
37852;BME280;23691;52.486;4.650;2023-02-01T06:16:44;101826.09;;;7.05;74.13
37852;BME280;23691;52.486;4.650;2023-02-01T06:19:12;101818.97;;;7.05;74.05
37852;BME280;23691;52.486;4.650;2023-02-01T06:21:37;101819.81;;;7.06;73.89
37852;BME280;23691;52.486;4.650;2023-02-01T06:24:03;101835.66;;;7.07;74.08
37852;BME280;23691;52.486;4.650;2023-02-01T06:26:29;101831.19;;;7.08;74.23
37852;BME280;23691;52.486;4.650;2023-02-01T06:28:54;101827.56;;;7.09;74.28
37852;BME280;23691;52.486;4.650;2023-02-01T06:31:20;101835.41;;;7.10;74.50
37852;BME280;23691;52.486;4.650;2023-02-01T06:33:46;101820.53;;;7.08;74.58
37852;BME280;23691;52.486;4.650;2023-02-01T06:36:12;101833.84;;;7.08;74.44
37852;BME280;23691;52.486;4.650;2023-02-01T06:38:38;101816.94;;;7.09;74.91
37852;BME280;23691;52.486;4.650;2023-02-01T06:41:04;101815.94;;;7.10;74.98
37852;BME280;23691;52.486;4.650;2023-02-01T06:43:31;101841.59;;;7.11;75.11
37852;BME280;23691;52.486;4.650;2023-02-01T06:46:03;101827.56;;;7.09;74.88
37852;BME280;23691;52.486;4.650;2023-02-01T06:48:29;101814.38;;;7.07;74.91
37852;BME280;23691;52.486;4.650;2023-02-01T06:50:54;101824.28;;;7.05;74.62
37852;BME280;23691;52.486;4.650;2023-02-01T06:53:20;101818.84;;;7.07;74.54
37852;BME280;23691;52.486;4.650;2023-02-01T06:56:11;101829.38;;;7.08;74.24
37852;BME280;23691;52.486;4.650;2023-02-01T06:58:37;101831.31;;;7.06;74.15
37852;BME280;23691;52.486;4.650;2023-02-01T07:01:05;101818.13;;;7.05;74.36
37852;BME280;23691;52.486;4.650;2023-02-01T07:03:31;101824.41;;;7.04;74.40
37852;BME280;23691;52.486;4.650;2023-02-01T07:05:56;101823.56;;;7.03;74.32
37852;BME280;23691;52.486;4.650;2023-02-01T07:08:24;101843.06;;;7.04;74.56
37852;BME280;23691;52.486;4.650;2023-02-01T07:10:49;101821.75;;;7.04;74.49
37852;BME280;23691;52.486;4.650;2023-02-01T07:13:15;101823.56;;;7.03;74.53
37852;BME280;23691;52.486;4.650;2023-02-01T07:15:40;101831.44;;;7.05;74.48
37852;BME280;23691;52.486;4.650;2023-02-01T07:18:05;101831.44;;;7.05;74.81
37852;BME280;23691;52.486;4.650;2023-02-01T07:20:31;101831.53;;;7.03;74.77
37852;BME280;23691;52.486;4.650;2023-02-01T07:22:57;101823.44;;;7.05;75.30
37852;BME280;23691;52.486;4.650;2023-02-01T07:25:23;101836.00;;;7.03;75.17
37852;BME280;23691;52.486;4.650;2023-02-01T07:27:48;101828.88;;;7.03;75.21
37852;BME280;23691;52.486;4.650;2023-02-01T07:30:13;101836.84;;;7.03;75.40
37852;BME280;23691;52.486;4.650;2023-02-01T07:32:39;101826.94;;;7.05;75.41
37852;BME280;23691;52.486;4.650;2023-02-01T07:35:04;101835.78;;;7.06;75.10
37852;BME280;23691;52.486;4.650;2023-02-01T07:37:30;101825.13;;;7.06;75.13
37852;BME280;23691;52.486;4.650;2023-02-01T07:39:55;101835.78;;;7.06;75.19
37852;BME280;23691;52.486;4.650;2023-02-01T07:42:21;101837.34;;;7.08;75.23
37852;BME280;23691;52.486;4.650;2023-02-01T07:44:46;101836.25;;;7.11;75.58
37852;BME280;23691;52.486;4.650;2023-02-01T07:47:11;101838.91;;;7.11;75.73
37852;BME280;23691;52.486;4.650;2023-02-01T07:49:37;101830.94;;;7.11;75.45
37852;BME280;23691;52.486;4.650;2023-02-01T07:52:02;101836.06;;;7.14;75.27
37852;BME280;23691;52.486;4.650;2023-02-01T07:54:27;101832.16;;;7.18;75.17
37852;BME280;23691;52.486;4.650;2023-02-01T07:56:53;101835.31;;;7.23;75.12
37852;BME280;23691;52.486;4.650;2023-02-01T07:59:18;101838.59;;;7.27;74.94
37852;BME280;23691;52.486;4.650;2023-02-01T08:01:44;101836.53;;;7.30;74.93
37852;BME280;23691;52.486;4.650;2023-02-01T08:04:11;101846.84;;;7.35;74.91
37852;BME280;23691;52.486;4.650;2023-02-01T08:06:37;101841.16;;;7.40;74.77
37852;BME280;23691;52.486;4.650;2023-02-01T08:09:03;101830.06;;;7.46;74.57
37852;BME280;23691;52.486;4.650;2023-02-01T08:11:29;101827.97;;;7.49;74.77
37852;BME280;23691;52.486;4.650;2023-02-01T08:13:55;101817.91;;;7.53;74.41
37852;BME280;23691;52.486;4.650;2023-02-01T08:16:21;101823.03;;;7.56;74.00
37852;BME280;23691;52.486;4.650;2023-02-01T08:18:47;101812.97;;;7.60;74.28
37852;BME280;23691;52.486;4.650;2023-02-01T08:21:23;101817.09;;;7.64;73.57
37852;BME280;23691;52.486;4.650;2023-02-01T08:23:52;101809.09;;;7.64;73.30
37852;BME280;23691;52.486;4.650;2023-02-01T08:26:20;101808.00;;;7.66;73.04
37852;BME280;23691;52.486;4.650;2023-02-01T08:28:49;101806.91;;;7.69;72.74
37852;BME280;23691;52.486;4.650;2023-02-01T08:31:18;101820.72;;;7.74;73.01
37852;BME280;23691;52.486;4.650;2023-02-01T08:33:49;101815.28;;;7.76;72.89
37852;BME280;23691;52.486;4.650;2023-02-01T08:36:14;101797.22;;;7.79;72.89
37852;BME280;23691;52.486;4.650;2023-02-01T08:38:40;101806.53;;;7.85;72.94
37852;BME280;23691;52.486;4.650;2023-02-01T08:41:07;101780.50;;;7.88;72.57
37852;BME280;23691;52.486;4.650;2023-02-01T08:43:33;101814.03;;;7.91;72.61
37852;BME280;23691;52.486;4.650;2023-02-01T08:45:59;101798.41;;;7.86;72.25
37852;BME280;23691;52.486;4.650;2023-02-01T08:48:24;101806.66;;;7.83;72.04
37852;BME280;23691;52.486;4.650;2023-02-01T08:50:49;101786.44;;;7.81;71.83
37852;BME280;23691;52.486;4.650;2023-02-01T08:53:14;101800.50;;;7.83;71.52
37852;BME280;23691;52.486;4.650;2023-02-01T08:55:40;101795.16;;;7.83;71.71
37852;BME280;23691;52.486;4.650;2023-02-01T08:58:06;101799.63;;;7.82;71.53
37852;BME280;23691;52.486;4.650;2023-02-01T09:00:31;101798.53;;;7.85;71.52
37852;BME280;23691;52.486;4.650;2023-02-01T09:02:57;101794.19;;;7.84;71.42
37852;BME280;23691;52.486;4.650;2023-02-01T09:05:22;101799.50;;;7.84;71.52
37852;BME280;23691;52.486;4.650;2023-02-01T09:07:52;101811.00;;;7.84;71.64
37852;BME280;23691;52.486;4.650;2023-02-01T09:10:17;101799.63;;;7.82;71.53
37852;BME280;23691;52.486;4.650;2023-02-01T09:12:42;101804.47;;;7.77;71.55
37852;BME280;23691;52.486;4.650;2023-02-01T09:15:08;101798.19;;;7.78;71.67
37852;BME280;23691;52.486;4.650;2023-02-01T09:17:34;101792.97;;;7.77;72.19
37852;BME280;23691;52.486;4.650;2023-02-01T09:20:00;101796.47;;;7.77;72.15
37852;BME280;23691;52.486;4.650;2023-02-01T09:22:26;101783.53;;;7.72;72.05
37852;BME280;23691;52.486;4.650;2023-02-01T09:24:52;101809.47;;;7.70;72.07
37852;BME280;23691;52.486;4.650;2023-02-01T09:27:18;101797.09;;;7.69;72.22
37852;BME280;23691;52.486;4.650;2023-02-01T09:29:43;101792.88;;;7.67;72.09
37852;BME280;23691;52.486;4.650;2023-02-01T09:32:09;101760.91;;;7.67;72.37
37852;BME280;23691;52.486;4.650;2023-02-01T09:34:35;101817.94;;;7.64;72.64
37852;BME280;23691;52.486;4.650;2023-02-01T09:37:01;101795.88;;;7.62;72.93
37852;BME280;23691;52.486;4.650;2023-02-01T09:39:27;101779.44;;;7.57;73.46
37852;BME280;23691;52.486;4.650;2023-02-01T09:47:29;101781.38;;;7.55;75.47
37852;BME280;23691;52.486;4.650;2023-02-01T09:50:00;101781.38;;;7.66;75.62
37852;BME280;23691;52.486;4.650;2023-02-01T09:55:40;101779.91;;;7.73;75.83
37852;BME280;23691;52.486;4.650;2023-02-01T10:01:05;101797.31;;;7.78;75.54
37852;BME280;23691;52.486;4.650;2023-02-01T10:03:35;101813.09;;;7.81;75.27
37852;BME280;23691;52.486;4.650;2023-02-01T10:06:14;101802.28;;;7.82;75.10
37852;BME280;23691;52.486;4.650;2023-02-01T10:25:22;101802.03;;;8.08;73.91
37852;BME280;23691;52.486;4.650;2023-02-01T10:27:50;101794.25;;;8.05;74.02
37852;BME280;23691;52.486;4.650;2023-02-01T10:30:20;101815.72;;;8.03;73.80
37852;BME280;23691;52.486;4.650;2023-02-01T10:32:48;101794.75;;;7.99;73.65
37852;BME280;23691;52.486;4.650;2023-02-01T10:35:18;101825.38;;;8.04;73.66
37852;BME280;23691;52.486;4.650;2023-02-01T10:37:46;101809.28;;;8.06;73.59
37852;BME280;23691;52.486;4.650;2023-02-01T10:40:23;101854.34;;;8.09;73.67
37852;BME280;23691;52.486;4.650;2023-02-01T10:42:51;101864.41;;;8.05;73.65
37852;BME280;23691;52.486;4.650;2023-02-01T10:45:20;101816.44;;;8.05;73.55
37852;BME280;23691;52.486;4.650;2023-02-01T10:47:50;101828.03;;;8.15;73.51
37852;BME280;23691;52.486;4.650;2023-02-01T10:53:17;101832.88;;;8.22;73.17
37852;BME280;23691;52.486;4.650;2023-02-01T10:55:52;101803.91;;;8.17;73.27
37852;BME280;23691;52.486;4.650;2023-02-01T10:58:20;101801.03;;;8.09;73.39
37852;BME280;23691;52.486;4.650;2023-02-01T11:00:53;101810.50;;;8.02;73.41
37852;BME280;23691;52.486;4.650;2023-02-01T11:03:34;101780.84;;;7.95;73.69
37852;BME280;23691;52.486;4.650;2023-02-01T11:06:08;101792.47;;;7.94;73.92
37852;BME280;23691;52.486;4.650;2023-02-01T11:08:42;101799.38;;;7.96;73.91
37852;BME280;23691;52.486;4.650;2023-02-01T11:11:09;101799.00;;;8.01;74.03
37852;BME280;23691;52.486;4.650;2023-02-01T11:13:38;101788.69;;;8.08;74.06
37852;BME280;23691;52.486;4.650;2023-02-01T11:16:05;101796.78;;;8.17;73.84
37852;BME280;23691;52.486;4.650;2023-02-01T11:18:35;101757.38;;;8.21;73.52
37852;BME280;23691;52.486;4.650;2023-02-01T11:21:02;101802.31;;;8.26;73.28
37852;BME280;23691;52.486;4.650;2023-02-01T11:23:29;101773.72;;;8.28;73.09
37852;BME280;23691;52.486;4.650;2023-02-01T11:25:58;101773.47;;;8.31;73.17
37852;BME280;23691;52.486;4.650;2023-02-01T11:28:34;101776.59;;;8.36;73.16
37852;BME280;23691;52.486;4.650;2023-02-01T11:31:05;101774.06;;;8.34;72.95
37852;BME280;23691;52.486;4.650;2023-02-01T11:33:36;101775.63;;;8.37;72.85
37852;BME280;23691;52.486;4.650;2023-02-01T11:36:11;101775.75;;;8.35;72.74
37852;BME280;23691;52.486;4.650;2023-02-01T11:38:39;101775.88;;;8.34;72.76
37852;BME280;23691;52.486;4.650;2023-02-01T11:41:20;101772.25;;;8.35;72.84
37852;BME280;23691;52.486;4.650;2023-02-01T11:43:56;101764.75;;;8.40;72.83
37852;BME280;23691;52.486;4.650;2023-02-01T11:46:27;101755.25;;;8.47;72.73
37852;BME280;23691;52.486;4.650;2023-02-01T11:48:53;101768.22;;;8.52;72.52
37852;BME280;23691;52.486;4.650;2023-02-01T11:51:42;101768.66;;;8.57;72.44
37852;BME280;23691;52.486;4.650;2023-02-01T11:54:25;101752.00;;;8.65;72.60
37852;BME280;23691;52.486;4.650;2023-02-01T11:57:11;101758.97;;;8.77;72.44
37852;BME280;23691;52.486;4.650;2023-02-01T12:05:10;101752.38;;;8.81;71.85
37852;BME280;23691;52.486;4.650;2023-02-01T12:10:38;101747.31;;;8.78;71.86
37852;BME280;23691;52.486;4.650;2023-02-01T12:16:22;101742.63;;;8.91;71.72
37852;BME280;23691;52.486;4.650;2023-02-01T12:19:03;101735.53;;;9.01;71.58
37852;BME280;23691;52.486;4.650;2023-02-01T12:43:44;101760.31;;;8.92;71.33
37852;BME280;23691;52.486;4.650;2023-02-01T12:46:33;101760.59;;;8.89;71.55
37852;BME280;23691;52.486;4.650;2023-02-01T12:49:11;101763.53;;;8.86;71.48
37852;BME280;23691;52.486;4.650;2023-02-01T12:51:41;101764.22;;;8.88;71.78
37852;BME280;23691;52.486;4.650;2023-02-01T12:54:18;101752.59;;;8.89;71.77
37852;BME280;23691;52.486;4.650;2023-02-01T12:56:58;101744.13;;;8.84;71.86
37852;BME280;23691;52.486;4.650;2023-02-01T12:59:38;101770.38;;;8.79;72.26
37852;BME280;23691;52.486;4.650;2023-02-01T13:04:56;101766.00;;;8.99;72.12
37852;BME280;23691;52.486;4.650;2023-02-01T13:07:30;101750.47;;;9.14;71.88
37852;BME280;23691;52.486;4.650;2023-02-01T13:10:05;101758.38;;;9.25;71.60
37852;BME280;23691;52.486;4.650;2023-02-01T13:12:43;101756.44;;;9.27;71.37
37852;BME280;23691;52.486;4.650;2023-02-01T13:15:17;101765.03;;;9.31;71.40
37852;BME280;23691;52.486;4.650;2023-02-01T13:17:46;101747.03;;;9.33;71.52
37852;BME280;23691;52.486;4.650;2023-02-01T13:20:26;101740.59;;;9.35;70.97
37852;BME280;23691;52.486;4.650;2023-02-01T13:25:32;101743.22;;;9.26;71.08
37852;BME280;23691;52.486;4.650;2023-02-01T13:28:11;101739.84;;;9.23;71.17
37852;BME280;23691;52.486;4.650;2023-02-01T13:33:35;101738.00;;;9.24;71.31
37852;BME280;23691;52.486;4.650;2023-02-01T13:36:27;101741.25;;;9.28;71.22
37852;BME280;23691;52.486;4.650;2023-02-01T13:41:53;101766.28;;;9.27;70.76
37852;BME280;23691;52.486;4.650;2023-02-01T13:44:26;101764.31;;;9.29;70.86
37852;BME280;23691;52.486;4.650;2023-02-01T13:46:54;101748.16;;;9.30;70.84
37852;BME280;23691;52.486;4.650;2023-02-01T13:49:38;101741.16;;;9.39;70.67
37852;BME280;23691;52.486;4.650;2023-02-01T13:52:16;101756.41;;;9.48;70.51
37852;BME280;23691;52.486;4.650;2023-02-01T13:54:46;101753.88;;;9.56;70.34
37852;BME280;23691;52.486;4.650;2023-02-01T14:00:06;101755.16;;;9.62;70.22
37852;BME280;23691;52.486;4.650;2023-02-01T14:05:01;101747.53;;;9.48;70.91
37852;BME280;23691;52.486;4.650;2023-02-01T14:07:27;101769.97;;;9.35;71.03
37852;BME280;23691;52.486;4.650;2023-02-01T14:09:54;101781.84;;;9.21;71.06
37852;BME280;23691;52.486;4.650;2023-02-01T14:15:26;101761.84;;;8.64;71.25
37852;BME280;23691;52.486;4.650;2023-02-01T14:17:53;101761.81;;;8.43;71.76
37852;BME280;23691;52.486;4.650;2023-02-01T14:20:42;101770.78;;;8.42;72.27
37852;BME280;23691;52.486;4.650;2023-02-01T14:23:20;101775.56;;;8.59;72.88
37852;BME280;23691;52.486;4.650;2023-02-01T14:25:58;101766.19;;;8.65;73.61
37852;BME280;23691;52.486;4.650;2023-02-01T14:28:27;101769.03;;;8.73;74.09
37852;BME280;23691;52.486;4.650;2023-02-01T14:30:54;101760.34;;;8.71;74.82
37852;BME280;23691;52.486;4.650;2023-02-01T14:33:23;101762.41;;;8.68;75.07
37852;BME280;23691;52.486;4.650;2023-02-01T14:36:15;101774.91;;;8.67;75.35
37852;BME280;23691;52.486;4.650;2023-02-01T14:38:48;101767.41;;;8.61;75.60
37852;BME280;23691;52.486;4.650;2023-02-01T14:49:30;101784.06;;;8.53;76.13
37852;BME280;23691;52.486;4.650;2023-02-01T14:51:56;101779.84;;;8.51;76.18
37852;BME280;23691;52.486;4.650;2023-02-01T14:54:22;101781.28;;;8.55;75.97
37852;BME280;23691;52.486;4.650;2023-02-01T14:56:48;101770.59;;;8.55;76.19
37852;BME280;23691;52.486;4.650;2023-02-01T14:59:15;101778.47;;;8.56;76.13
37852;BME280;23691;52.486;4.650;2023-02-01T15:01:50;101782.13;;;8.55;75.92
37852;BME280;23691;52.486;4.650;2023-02-01T15:04:17;101788.56;;;8.53;76.28
37852;BME280;23691;52.486;4.650;2023-02-01T15:14:45;101800.88;;;8.65;76.41
37852;BME280;23691;52.486;4.650;2023-02-01T15:19:59;101799.38;;;8.72;76.43
37852;BME280;23691;52.486;4.650;2023-02-01T15:22:26;101808.50;;;8.70;76.25